< < Back
Terminal Aerodrome Forecast


Current Version              Previous Versions:   1  2  3  4  5  6  7  8  9  

Terminal Aerodrome Forecast

395
FTUS42 KGSP 231723
TAFAVL
TAF
KAVL 231723Z 2318/2418 34015G24KT P6SM SKC
     FM240000 34007KT P6SM FEW024
     FM240800 35003KT P6SM SCT210
      TEMPO 2410/2412 4SM BR=

Latest METAR

887
SAUS70 KWBC 231700 RRK
MTRAVL
METAR KAVL 231654Z 34017G23KT 10SM CLR 15/02 A3011 RMK AO2 SLP187
T01500022


USA.gov is the U.S. government's official web portal to all federal, state and local government web resources and services.